Federal Churchill — V7NK3 — position and weather

sailwx.info

Track history (hours):
 
Tides and Currents Weather Stations Pressure Air Temp Water Temp Dewpoint Dewpoint Depression Visibility Wind Speed Wind Dir Waves Ship Positions

Federal Churchill

Last reported at 2018-May-22 19:30 UTC. Time now 2018-May-22 19:51 UTC.
Position N 46°03' W 073°07'.

Length 200 m; draft 7.3 m.

Type: Cargo ship. MMSI: 538006469.

Date/timePositionNaut miles runAvg speedWind from/ knotsBaromVisibWave heightAir tempDewpointWater temp
2018-May-22 19:30N 46°03' W 073°07'0 0.0
2018-May-22 19:00N 46°03' W 073°07'0 0.0
2018-May-22 18:30N 46°03' W 073°07'0 0.0
2018-May-22 18:00N 46°03' W 073°07'0 0.0
2018-May-22 17:30N 46°03' W 073°07'0 0.0
2018-May-22 17:00N 46°03' W 073°07'0 0.0
2018-May-22 16:27N 46°03' W 073°07'0 0.0
2018-May-22 16:00N 46°03' W 073°07'0 0.0
2018-May-22 15:30N 46°03' W 073°07'0 0.0
2018-May-22 15:00N 46°03' W 073°07'0 0.0
2018-May-22 14:30N 46°03' W 073°07'0 0.0
2018-May-22 14:00N 46°03' W 073°07'0 0.0
2018-May-22 13:30N 46°03' W 073°07'0 0.0
2018-May-22 13:00N 46°03' W 073°07'0 0.0
2018-May-22 12:30N 46°03' W 073°07'0 0.0
2018-May-22 12:00N 46°03' W 073°07'0 0.0
2018-May-22 11:24N 46°03' W 073°07'0 0.0
2018-May-22 10:54N 46°03' W 073°07'0 0.0
2018-May-22 10:30N 46°03' W 073°07'0 0.0
2018-May-22 10:00N 46°03' W 073°07'0 0.0
2018-May-22 09:03N 46°03' W 073°07'0 0.0
2018-May-22 09:00N 46°03' W 073°07'0 0.0
2018-May-22 08:30N 46°03' W 073°07'0 0.0
2018-May-22 08:00N 46°03' W 073°07'0 0.0
2018-May-22 07:30N 46°03' W 073°07'0 0.0
2018-May-22 07:00N 46°03' W 073°07'0 0.0
2018-May-22 06:30N 46°03' W 073°07'0 0.0
2018-May-22 06:00N 46°03' W 073°07'0 0.0
2018-May-22 05:30N 46°03' W 073°07'0 0.0
2018-May-22 05:00N 46°03' W 073°07'0 0.0
2018-May-22 04:30N 46°03' W 073°07'0 0.0
2018-May-22 04:00N 46°03' W 073°07'0 0.0
2018-May-22 03:30N 46°03' W 073°07'0 0.0
2018-May-22 03:00N 46°03' W 073°07'0 0.0
2018-May-22 02:30N 46°03' W 073°07'0 0.0
2018-May-22 02:00N 46°03' W 073°07'0 0.0
2018-May-22 01:30N 46°03' W 073°07'0 0.0
2018-May-22 01:00N 46°03' W 073°07'0 0.0
2018-May-22 00:30N 46°03' W 073°07'0 0.0
2018-May-22 00:00N 46°03' W 073°07'0 0.0
2018-May-21 23:30N 46°03' W 073°07'0 0.0
2018-May-21 23:00N 46°03' W 073°07'0 0.0
2018-May-21 22:30N 46°03' W 073°07'0 0.0
2018-May-21 22:00N 46°03' W 073°07'0 0.0
2018-May-21 21:30N 46°03' W 073°07'0 0.0
2018-May-21 21:00N 46°03' W 073°07'0 0.0
2018-May-21 20:30N 46°03' W 073°07'0 0.0
2018-May-21 19:57N 46°03' W 073°07'0 0.0
2018-May-21 19:30N 46°03' W 073°07'0 0.0
2018-May-21 18:54N 46°03' W 073°07'0 0.0
2018-May-21 18:30N 46°03' W 073°07'0 0.0
2018-May-21 18:00N 46°03' W 073°07'0 0.0
2018-May-21 17:30N 46°03' W 073°07'0 0.0
2018-May-21 16:57N 46°03' W 073°07'0 0.0
2018-May-21 16:30N 46°03' W 073°07'0 0.0
2018-May-21 16:00N 46°03' W 073°07'0 0.0
2018-May-21 15:30N 46°03' W 073°07'0 0.0
2018-May-21 15:00N 46°03' W 073°07'0 0.0
2018-May-21 14:30N 46°03' W 073°07'0 0.0
2018-May-21 14:00N 46°03' W 073°07'0 0.0
2018-May-21 13:30N 46°03' W 073°07'0 0.0
2018-May-21 13:00N 46°03' W 073°07'0 0.0
2018-May-21 12:30N 46°03' W 073°07'0 0.8
2018-May-21 12:00N 46°03' W 073°07'2 3.3
2018-May-21 11:30N 46°04' W 073°05'4 7.9
2018-May-21 10:58N 46°06' W 072°59'5 8.5
2018-May-21 10:25N 46°10' W 072°56'4 9.1
2018-May-21 10:00N 46°12' W 072°52'6 8.7
2018-May-21 09:19N 46°15' W 072°44'7210.0
2018-May-21 02:03N 46°49' W 071°12'1 8.9
2018-May-21 01:57N 46°50' W 071°11'  
Track history (hours):
 
Tides and Currents Weather Stations Pressure Air Temp Water Temp Dewpoint Dewpoint Depression Visibility Wind Speed Wind Dir Waves Ship Positions

Federal Churchill

Last reported at 2018-May-22 19:30 UTC. Time now 2018-May-22 19:51 UTC.
Position N 46°03' W 073°07'.

Length 200 m; draft 7.3 m.

Type: Cargo ship. MMSI: 538006469.

Date/timePositionNaut miles runAvg speedWind from/ knotsBaromVisibWave heightAir tempDewpointWater temp
2018-May-22 19:30N 46°03' W 073°07'0 0.0
2018-May-22 19:00N 46°03' W 073°07'0 0.0
2018-May-22 18:30N 46°03' W 073°07'0 0.0
2018-May-22 18:00N 46°03' W 073°07'0 0.0
2018-May-22 17:30N 46°03' W 073°07'0 0.0
2018-May-22 17:00N 46°03' W 073°07'0 0.0
2018-May-22 16:27N 46°03' W 073°07'0 0.0
2018-May-22 16:00N 46°03' W 073°07'0 0.0
2018-May-22 15:30N 46°03' W 073°07'0 0.0
2018-May-22 15:00N 46°03' W 073°07'0 0.0
2018-May-22 14:30N 46°03' W 073°07'0 0.0
2018-May-22 14:00N 46°03' W 073°07'0 0.0
2018-May-22 13:30N 46°03' W 073°07'0 0.0
2018-May-22 13:00N 46°03' W 073°07'0 0.0
2018-May-22 12:30N 46°03' W 073°07'0 0.0
2018-May-22 12:00N 46°03' W 073°07'0 0.0
2018-May-22 11:24N 46°03' W 073°07'0 0.0
2018-May-22 10:54N 46°03' W 073°07'0 0.0
2018-May-22 10:30N 46°03' W 073°07'0 0.0
2018-May-22 10:00N 46°03' W 073°07'0 0.0
2018-May-22 09:03N 46°03' W 073°07'0 0.0
2018-May-22 09:00N 46°03' W 073°07'0 0.0
2018-May-22 08:30N 46°03' W 073°07'0 0.0
2018-May-22 08:00N 46°03' W 073°07'0 0.0
2018-May-22 07:30N 46°03' W 073°07'0 0.0
2018-May-22 07:00N 46°03' W 073°07'0 0.0
2018-May-22 06:30N 46°03' W 073°07'0 0.0
2018-May-22 06:00N 46°03' W 073°07'0 0.0
2018-May-22 05:30N 46°03' W 073°07'0 0.0
2018-May-22 05:00N 46°03' W 073°07'0 0.0
2018-May-22 04:30N 46°03' W 073°07'0 0.0
2018-May-22 04:00N 46°03' W 073°07'0 0.0
2018-May-22 03:30N 46°03' W 073°07'0 0.0
2018-May-22 03:00N 46°03' W 073°07'0 0.0
2018-May-22 02:30N 46°03' W 073°07'0 0.0
2018-May-22 02:00N 46°03' W 073°07'0 0.0
2018-May-22 01:30N 46°03' W 073°07'0 0.0
2018-May-22 01:00N 46°03' W 073°07'0 0.0
2018-May-22 00:30N 46°03' W 073°07'0 0.0
2018-May-22 00:00N 46°03' W 073°07'0 0.0
2018-May-21 23:30N 46°03' W 073°07'0 0.0
2018-May-21 23:00N 46°03' W 073°07'0 0.0
2018-May-21 22:30N 46°03' W 073°07'0 0.0
2018-May-21 22:00N 46°03' W 073°07'0 0.0
2018-May-21 21:30N 46°03' W 073°07'0 0.0
2018-May-21 21:00N 46°03' W 073°07'0 0.0
2018-May-21 20:30N 46°03' W 073°07'0 0.0
2018-May-21 19:57N 46°03' W 073°07'0 0.0
2018-May-21 19:30N 46°03' W 073°07'0 0.0
2018-May-21 18:54N 46°03' W 073°07'0 0.0
2018-May-21 18:30N 46°03' W 073°07'0 0.0
2018-May-21 18:00N 46°03' W 073°07'0 0.0
2018-May-21 17:30N 46°03' W 073°07'0 0.0
2018-May-21 16:57N 46°03' W 073°07'0 0.0
2018-May-21 16:30N 46°03' W 073°07'0 0.0
2018-May-21 16:00N 46°03' W 073°07'0 0.0
2018-May-21 15:30N 46°03' W 073°07'0 0.0
2018-May-21 15:00N 46°03' W 073°07'0 0.0
2018-May-21 14:30N 46°03' W 073°07'0 0.0
2018-May-21 14:00N 46°03' W 073°07'0 0.0
2018-May-21 13:30N 46°03' W 073°07'0 0.0
2018-May-21 13:00N 46°03' W 073°07'0 0.0
2018-May-21 12:30N 46°03' W 073°07'0 0.8
2018-May-21 12:00N 46°03' W 073°07'2 3.3
2018-May-21 11:30N 46°04' W 073°05'4 7.9
2018-May-21 10:58N 46°06' W 072°59'5 8.5
2018-May-21 10:25N 46°10' W 072°56'4 9.1
2018-May-21 10:00N 46°12' W 072°52'6 8.7
2018-May-21 09:19N 46°15' W 072°44'7210.0
2018-May-21 02:03N 46°49' W 071°12'1 8.9
2018-May-21 01:57N 46°50' W 071°11'  

Dump ship's entire track history